Pierce City, MO

4:07 PM CDT on August 28, 2016 (GMT -0500)
Monett

Weather History for KHFJ - October, 2013

Change the Weather History Date:

Sunday, October 6, 2013

  Actual Average (KJLN) Record (KJLN)
Temperature  
Mean Temperature 51 °F 63 °F  
Max Temperature 60 °F 74 °F 90 °F (1963)
Min Temperature 42 °F 51 °F 33 °F (2012)
Degree Days  
Heating Degree Days 14 5  
Month to date heating degree days 26  
Since 1 July heating degree days 68  
Cooling Degree Days 0 2  
Month to date cooling degree days 17  
Year to date cooling degree days 1659  
Growing Degree Days 1 (Base 50)    
Moisture  
Dew Point 41 °F    
Average Humidity 70    
Maximum Humidity 93    
Minimum Humidity 48    
Precipitation  
Precipitation 0.01 in 0.13 in 0.90 in (1951)
Month to date precipitation 0.80  
Year to date precipitation 36.72  
Sea Level Pressure  
Sea Level Pressure 29.98 in    
Wind  
Wind Speed 8 mph (West)    
Max Wind Speed 17 mph    
Max Gust Speed 24 mph    
Visibility 10 miles    
Events      
T = Trace of Precipitation, MM = Missing Value Source: NWS Daily Summary

Daily Weather History Graph

Daily Weather History Graph

Search for Another Location

Airport or City:

Trip Planner

Search our weather history database for the weather conditions in past years. The results will help you decide how hot, cold, wet, or windy it might be!

Date:

Astronomy

Oct. 06, 2013 Rise Set
Actual Time 7:15 AM CDT 6:51 PM CDT
Civil Twilight 6:49 AM CDT 7:17 PM CDT
Nautical Twilight 6:19 AM CDT 7:47 PM CDT
Astronomical Twilight 5:49 AM CDT 8:17 PM CDT
Moon 8:57 AM CDT (10/6) 7:55 PM CDT (10/6)
Length of Visible Light 12h 27m
Length of Day
11h 35m
Waxing Crescent, 3% of the Moon is Illuminated
Oct 6
Waxing Crescent
Oct 11
First Quarter
Oct 18
Full
Oct 26
Last Quarter
Nov 3
New

Hourly Weather History & Observations

Time (CDT) Temp. Windchill Dew Point Humidity Pressure Visibility Wind Dir Wind Speed Gust Speed Precip Events Conditions
12:15 AM 46.4 °F 42.9 °F 42.8 °F 87% 30.00 in 10.0 mi WSW 6.9 mph - N/A   Clear
12:35 AM 46.4 °F 42.9 °F 42.8 °F 87% 29.99 in 10.0 mi WSW 6.9 mph - N/A   Clear
12:55 AM 46.4 °F 43.5 °F 42.8 °F 87% 29.98 in 10.0 mi SW 5.8 mph - 0.01 in   Clear
1:15 AM 46.4 °F 43.5 °F 42.8 °F 87% 29.97 in 10.0 mi SW 5.8 mph - N/A   Clear
1:35 AM 46.4 °F 42.9 °F 42.8 °F 87% 29.97 in 10.0 mi SW 6.9 mph - N/A   Clear
1:55 AM 46.4 °F 43.5 °F 42.8 °F 87% 29.97 in 10.0 mi WSW 5.8 mph - N/A   Clear
2:15 AM 46.4 °F 42.9 °F 42.8 °F 87% 29.96 in 10.0 mi WSW 6.9 mph - N/A   Clear
2:35 AM 46.4 °F 42.9 °F 42.8 °F 87% 29.96 in 10.0 mi WSW 6.9 mph - N/A   Clear
2:55 AM 44.6 °F 41.4 °F 42.8 °F 93% 29.95 in 10.0 mi WSW 5.8 mph - N/A   Clear
3:15 AM 44.6 °F 40.7 °F 42.8 °F 93% 29.95 in 10.0 mi West 6.9 mph - N/A   Clear
3:35 AM 44.6 °F 40.7 °F 42.8 °F 93% 29.95 in 10.0 mi WSW 6.9 mph - N/A   Clear
3:55 AM 44.6 °F 40.7 °F 42.8 °F 93% 29.94 in 10.0 mi WSW 6.9 mph - N/A   Clear
4:15 AM 44.6 °F 40.7 °F 41.0 °F 87% 29.94 in 10.0 mi WSW 6.9 mph - N/A   Clear
4:35 AM 44.6 °F 40.2 °F 41.0 °F 87% 29.94 in 10.0 mi West 8.1 mph - N/A   Clear
4:55 AM 44.6 °F 41.4 °F 39.2 °F 81% 29.94 in 10.0 mi WSW 5.8 mph - N/A   Clear
5:15 AM 44.6 °F 42.2 °F 39.2 °F 81% 29.94 in 10.0 mi SW 4.6 mph - N/A   Clear
5:35 AM 42.8 °F 39.3 °F 39.2 °F 87% 29.94 in 10.0 mi SSW 5.8 mph - N/A   Clear
5:55 AM 42.8 °F 39.3 °F 39.2 °F 87% 29.95 in 10.0 mi SW 5.8 mph - N/A   Clear
6:15 AM 42.8 °F 39.3 °F 37.4 °F 81% 29.95 in 10.0 mi West 5.8 mph - N/A   Clear
6:35 AM 42.8 °F 40.1 °F 37.4 °F 81% 29.96 in 10.0 mi WSW 4.6 mph - N/A   Clear
6:55 AM 42.8 °F 39.3 °F 37.4 °F 81% 29.96 in 10.0 mi West 5.8 mph - N/A   Clear
7:15 AM 42.8 °F 37.5 °F 35.6 °F 76% 29.96 in 10.0 mi West 9.2 mph - N/A   Clear
7:35 AM 42.8 °F 38.6 °F 37.4 °F 81% 29.96 in 10.0 mi West 6.9 mph - N/A   Clear
7:55 AM 42.8 °F 40.1 °F 37.4 °F 81% 29.97 in 10.0 mi WSW 4.6 mph - N/A   Clear
8:15 AM 44.6 °F 41.4 °F 37.4 °F 76% 29.97 in 10.0 mi WSW 5.8 mph - N/A   Clear
8:35 AM 46.4 °F 41.5 °F 37.4 °F 71% 29.97 in 10.0 mi West 10.4 mph - N/A   Clear
8:55 AM 46.4 °F 40.4 °F 37.4 °F 71% 29.98 in 10.0 mi WNW 13.8 mph 18.4 mph N/A   Clear
9:15 AM 48.2 °F - 37.4 °F 66% 29.98 in 10.0 mi West 10.4 mph - N/A   Clear
9:35 AM 48.2 °F - 37.4 °F 66% 29.98 in 10.0 mi West 12.7 mph 21.9 mph N/A   Clear
9:55 AM 50.0 °F - 39.2 °F 66% 29.99 in 10.0 mi West 11.5 mph 19.6 mph N/A   Clear
10:15 AM 50.0 °F - 37.4 °F 62% 29.99 in 10.0 mi WNW 12.7 mph 17.3 mph N/A   Clear
10:35 AM 51.8 °F - 37.4 °F 58% 29.99 in 10.0 mi WNW 9.2 mph 16.1 mph N/A   Clear
10:55 AM 51.8 °F - 37.4 °F 58% 30.00 in 10.0 mi West 10.4 mph - N/A   Scattered Clouds
11:15 AM 51.8 °F - 37.4 °F 58% 30.00 in 10.0 mi WNW 11.5 mph - N/A   Scattered Clouds
11:35 AM 51.8 °F - 39.2 °F 62% 30.00 in 10.0 mi NW 11.5 mph 19.6 mph N/A   Scattered Clouds
11:55 AM 53.6 °F - 39.2 °F 58% 30.00 in 10.0 mi West 11.5 mph - N/A   Scattered Clouds
12:15 PM 53.6 °F - 41.0 °F 62% 29.99 in 10.0 mi West 13.8 mph 18.4 mph N/A   Scattered Clouds
12:35 PM 53.6 °F - 41.0 °F 62% 29.99 in 10.0 mi West 10.4 mph - N/A   Scattered Clouds
12:55 PM 55.4 °F - 41.0 °F 58% 29.99 in 10.0 mi West 13.8 mph 19.6 mph N/A   Mostly Cloudy
1:15 PM 53.6 °F - 41.0 °F 62% 29.98 in 10.0 mi West 12.7 mph 18.4 mph N/A   Mostly Cloudy
1:35 PM 55.4 °F - 41.0 °F 58% 29.98 in 10.0 mi West 17.3 mph 21.9 mph N/A   Mostly Cloudy
1:55 PM 55.4 °F - 41.0 °F 58% 29.97 in 10.0 mi West 11.5 mph 18.4 mph N/A   Overcast
2:15 PM 55.4 °F - 41.0 °F 58% 29.97 in 10.0 mi West 11.5 mph 19.6 mph N/A   Overcast
2:35 PM 59.0 °F - 42.8 °F 55% 29.96 in 10.0 mi West 15.0 mph 19.6 mph N/A   Overcast
2:55 PM 59.0 °F - 41.0 °F 51% 29.97 in 10.0 mi West 17.3 mph 23.0 mph N/A   Overcast
3:15 PM 59.0 °F - 41.0 °F 51% 29.96 in 10.0 mi West 13.8 mph 24.2 mph N/A   Overcast
3:35 PM 59.0 °F - 41.0 °F 51% 29.96 in 10.0 mi WNW 12.7 mph 19.6 mph N/A   Mostly Cloudy
3:55 PM 59.0 °F - 41.0 °F 51% 29.96 in 10.0 mi West 15.0 mph 20.7 mph N/A   Scattered Clouds
4:15 PM 59.0 °F - 42.8 °F 55% 29.96 in 10.0 mi WNW 13.8 mph - N/A   Scattered Clouds
4:35 PM 60.8 °F - 41.0 °F 48% 29.97 in 10.0 mi WNW 12.7 mph 17.3 mph N/A   Mostly Cloudy
4:55 PM 60.8 °F - 41.0 °F 48% 29.96 in 10.0 mi West 13.8 mph - N/A   Scattered Clouds
5:15 PM 59.0 °F - 41.0 °F 51% 29.96 in 10.0 mi West 15.0 mph 18.4 mph N/A   Scattered Clouds
5:35 PM 59.0 °F - 41.0 °F 51% 29.97 in 10.0 mi West 12.7 mph 18.4 mph N/A   Scattered Clouds
5:55 PM 59.0 °F - 41.0 °F 51% 29.97 in 10.0 mi West 8.1 mph 11.5 mph N/A   Clear
6:15 PM 59.0 °F - 42.8 °F 55% 29.97 in 10.0 mi West 9.2 mph - N/A   Clear
6:35 PM 55.4 °F - 42.8 °F 63% 29.97 in 10.0 mi West 8.1 mph - N/A   Clear
6:55 PM 55.4 °F - 42.8 °F 63% 29.98 in 10.0 mi WSW 6.9 mph - N/A   Mostly Cloudy
7:15 PM 55.4 °F - 42.8 °F 63% 29.97 in 10.0 mi WSW 4.6 mph - N/A   Overcast
7:35 PM 53.6 °F - 44.6 °F 72% 29.98 in 10.0 mi WSW 4.6 mph - N/A   Mostly Cloudy
7:55 PM 53.6 °F - 44.6 °F 72% 29.99 in 10.0 mi WSW 4.6 mph - N/A   Overcast
8:15 PM 53.6 °F - 44.6 °F 72% 29.98 in 10.0 mi SW 5.8 mph - N/A   Overcast
8:35 PM 53.6 °F - 44.6 °F 72% 29.98 in 10.0 mi SW 6.9 mph - N/A   Overcast
8:55 PM 53.6 °F - 44.6 °F 72% 29.99 in 10.0 mi WSW 5.8 mph - N/A   Overcast
9:15 PM 53.6 °F - 44.6 °F 72% 30.00 in 10.0 mi WSW 5.8 mph - N/A   Overcast
9:35 PM 53.6 °F - 44.6 °F 72% 30.00 in 10.0 mi WSW 4.6 mph - N/A   Overcast
9:55 PM 53.6 °F - 44.6 °F 72% 30.00 in 10.0 mi WSW 5.8 mph - N/A   Overcast
10:15 PM 53.6 °F - 44.6 °F 72% 30.01 in 10.0 mi West 4.6 mph - N/A   Overcast
10:35 PM 53.6 °F - 44.6 °F 72% 30.02 in 10.0 mi West 4.6 mph - N/A   Scattered Clouds
10:55 PM 53.6 °F - 44.6 °F 72% 30.02 in 10.0 mi NW 3.5 mph - N/A   Scattered Clouds
11:15 PM 51.8 °F - 44.6 °F 76% 30.03 in 10.0 mi NW 3.5 mph - N/A   Clear
11:35 PM 51.8 °F - 44.6 °F 76% 30.03 in 10.0 mi Calm Calm - N/A   Clear
11:55 PM 51.8 °F - 44.6 °F 76% 30.03 in 10.0 mi Calm Calm - N/A   Clear